createdAt,value
2023-04-15T00:00:07.832Z,243.97
2023-04-15T00:01:07.864Z,236.37
2023-04-15T00:02:07.953Z,239.18
2023-04-15T00:03:07.880Z,236.79
2023-04-15T00:04:07.880Z,232.08
2023-04-15T00:05:07.882Z,230.37
2023-04-15T00:06:07.827Z,230.18
2023-04-15T00:07:07.792Z,227.12
2023-04-15T00:08:07.823Z,221.46
2023-04-15T00:09:07.860Z,217.23
2023-04-15T00:10:07.988Z,218.03
2023-04-15T00:11:08.042Z,220.24
2023-04-15T00:12:08.048Z,221.84
2023-04-15T00:13:08.084Z,224.17
2023-04-15T00:14:08.105Z,228.20
2023-04-15T00:15:08.513Z,232.64
2023-04-15T00:16:08.251Z,236.47
2023-04-15T00:17:08.281Z,239.58
2023-04-15T00:18:08.397Z,241.32
2023-04-15T00:19:08.579Z,243.27
2023-04-15T00:20:08.372Z,245.31
2023-04-15T00:21:08.404Z,233.72
2023-04-15T00:22:08.472Z,223.22
2023-04-15T00:23:08.518Z,220.49
2023-04-15T00:24:08.595Z,215.57
2023-04-15T00:25:08.638Z,212.54
2023-04-15T00:26:08.702Z,208.09
2023-04-15T00:27:08.715Z,205.05
2023-04-15T00:28:08.778Z,202.03
2023-04-15T00:29:08.830Z,198.95
2023-04-15T00:30:08.872Z,196.52
2023-04-15T00:31:08.949Z,194.60
2023-04-15T00:32:08.952Z,192.27
2023-04-15T00:33:09.005Z,209.98
2023-04-15T00:34:09.011Z,211.54
2023-04-15T00:35:09.010Z,198.94
2023-04-15T00:36:09.024Z,196.46
2023-04-15T00:37:09.048Z,199.37
2023-04-15T00:38:09.135Z,202.67
2023-04-15T00:39:09.252Z,193.71
2023-04-15T00:40:09.372Z,189.13
2023-04-15T00:41:09.471Z,191.43
2023-04-15T00:42:09.566Z,194.16
2023-04-15T00:43:09.654Z,187.14
2023-04-15T00:44:09.710Z,186.58
2023-04-15T00:45:09.809Z,193.12
2023-04-15T00:46:09.928Z,194.07
2023-04-15T00:47:09.921Z,194.61
2023-04-15T00:48:09.969Z,196.92
2023-04-15T00:49:10.031Z,201.89
2023-04-15T00:50:10.097Z,207.74
2023-04-15T00:51:10.193Z,213.64
2023-04-15T00:52:10.207Z,217.15
2023-04-15T00:53:10.268Z,203.92
2023-04-15T00:54:10.340Z,198.40
2023-04-15T00:55:10.325Z,195.93
2023-04-15T00:56:10.407Z,194.17
2023-04-15T00:57:10.497Z,196.84
2023-04-15T00:58:10.503Z,198.90
2023-04-15T00:59:10.552Z,200.30
2023-04-15T01:00:10.626Z,204.72
2023-04-15T01:01:10.785Z,208.10
2023-04-15T01:02:10.809Z,214.90
2023-04-15T01:03:10.993Z,218.47
2023-04-15T01:04:11.015Z,220.65
2023-04-15T01:05:10.913Z,221.40
2023-04-15T01:06:11.067Z,224.00
2023-04-15T01:07:11.094Z,226.30
2023-04-15T01:08:11.102Z,223.17
2023-04-15T01:09:11.168Z,221.46
2023-04-15T01:10:11.224Z,219.19
2023-04-15T01:11:11.244Z,218.53
2023-04-15T01:12:11.347Z,217.89
2023-04-15T01:13:11.327Z,220.60
2023-04-15T01:14:11.436Z,218.80
2023-04-15T01:15:11.457Z,216.21
2023-04-15T01:16:11.521Z,219.41
2023-04-15T01:17:11.562Z,222.21
2023-04-15T01:18:11.587Z,223.34
2023-04-15T01:19:11.608Z,224.33
2023-04-15T01:20:11.704Z,226.53
2023-04-15T01:21:11.770Z,221.36
2023-04-15T01:22:11.801Z,221.83
2023-04-15T01:23:11.763Z,217.60
2023-04-15T01:24:12.161Z,215.57
2023-04-15T01:25:11.929Z,213.91
2023-04-15T01:26:12.016Z,213.96
2023-04-15T01:27:12.038Z,214.15
2023-04-15T01:28:12.069Z,218.38
2023-04-15T01:29:12.128Z,217.40
2023-04-15T01:30:12.174Z,210.69
2023-04-15T01:31:12.372Z,205.90
2023-04-15T01:32:12.288Z,204.00
2023-04-15T01:33:12.321Z,204.27
2023-04-15T01:34:12.372Z,208.67
2023-04-15T01:35:12.399Z,213.98
2023-04-15T01:36:12.517Z,218.61
2023-04-15T01:37:12.517Z,213.87
2023-04-15T01:38:12.557Z,215.72
2023-04-15T01:39:12.612Z,217.58
2023-04-15T01:40:12.656Z,219.12
2023-04-15T01:41:12.684Z,219.30
2023-04-15T01:42:12.677Z,215.96
2023-04-15T01:43:12.760Z,216.72
2023-04-15T01:44:12.860Z,216.05
2023-04-15T01:45:12.867Z,222.38
2023-04-15T01:46:12.914Z,227.09
2023-04-15T01:47:12.907Z,225.33
2023-04-15T01:48:13.191Z,224.42
2023-04-15T01:49:12.918Z,222.85
2023-04-15T01:50:12.937Z,225.26
2023-04-15T01:51:12.948Z,224.02
2023-04-15T01:52:12.924Z,224.47
2023-04-15T01:53:13.043Z,225.28
2023-04-15T01:54:13.088Z,227.32
2023-04-15T01:55:13.122Z,225.64
2023-04-15T01:56:14.763Z,228.20
2023-04-15T01:57:13.203Z,223.91
2023-04-15T01:58:13.188Z,222.68
2023-04-15T01:59:13.187Z,212.55
2023-04-15T02:00:13.154Z,209.37
2023-04-15T02:01:13.179Z,209.63
2023-04-15T02:02:13.149Z,206.77
2023-04-15T02:03:13.217Z,201.34
2023-04-15T02:04:13.133Z,199.02
2023-04-15T02:05:13.120Z,199.65
2023-04-15T02:06:13.153Z,197.44
2023-04-15T02:07:13.085Z,198.72
2023-04-15T02:08:13.091Z,202.75
2023-04-15T02:09:13.143Z,209.16
2023-04-15T02:10:13.101Z,222.05
2023-04-15T02:11:13.091Z,225.96
2023-04-15T02:12:13.085Z,230.56
2023-04-15T02:13:13.093Z,231.88
2023-04-15T02:14:13.050Z,229.95
2023-04-15T02:15:13.087Z,224.39
2023-04-15T02:16:13.092Z,220.56
2023-04-15T02:17:13.075Z,215.22
2023-04-15T02:18:13.036Z,216.10
2023-04-15T02:19:13.026Z,208.15
2023-04-15T02:20:13.056Z,208.34
2023-04-15T02:21:13.048Z,207.31
2023-04-15T02:22:13.001Z,207.79
2023-04-15T02:23:13.056Z,209.87
2023-04-15T02:24:12.986Z,214.28
2023-04-15T02:25:12.976Z,215.68
2023-04-15T02:26:13.015Z,218.67
2023-04-15T02:27:12.989Z,219.63
2023-04-15T02:28:12.993Z,217.08
2023-04-15T02:29:13.005Z,219.90
2023-04-15T02:30:12.963Z,222.23
2023-04-15T02:31:12.997Z,221.14
2023-04-15T02:32:13.161Z,221.43
2023-04-15T02:33:12.951Z,220.82
2023-04-15T02:34:12.961Z,222.70
2023-04-15T02:35:12.971Z,221.48
2023-04-15T02:36:12.938Z,225.11
2023-04-15T02:37:12.935Z,226.52
2023-04-15T02:38:12.908Z,230.00
2023-04-15T02:39:12.994Z,232.98
2023-04-15T02:40:13.011Z,235.20
2023-04-15T02:41:13.092Z,243.00
2023-04-15T02:42:13.109Z,248.94
2023-04-15T02:43:13.180Z,250.02
2023-04-15T02:44:13.172Z,250.55
2023-04-15T02:45:13.270Z,250.00
2023-04-15T02:46:13.360Z,250.16
2023-04-15T02:47:13.321Z,247.58
2023-04-15T02:48:13.367Z,245.17
2023-04-15T02:49:13.427Z,244.29
2023-04-15T02:50:13.467Z,241.58
2023-04-15T02:51:13.606Z,234.69
2023-04-15T02:52:13.569Z,234.35
2023-04-15T02:53:13.634Z,235.24
2023-04-15T02:54:13.685Z,236.63
2023-04-15T02:55:13.745Z,237.87
2023-04-15T02:56:13.802Z,240.10
2023-04-15T02:57:13.830Z,243.52
2023-04-15T02:58:13.933Z,249.77
2023-04-15T02:59:13.866Z,250.00
2023-04-15T03:00:13.875Z,253.66
2023-04-15T03:01:13.991Z,255.84
2023-04-15T03:02:14.047Z,252.08
2023-04-15T03:03:14.218Z,249.46
2023-04-15T03:04:14.067Z,249.98
2023-04-15T03:05:14.084Z,251.14
2023-04-15T03:06:14.142Z,250.14
2023-04-15T03:07:14.192Z,249.17
2023-04-15T03:08:14.204Z,245.42
2023-04-15T03:09:14.301Z,234.33
2023-04-15T03:10:14.318Z,231.50
2023-04-15T03:11:14.372Z,235.17
2023-04-15T03:12:14.429Z,234.73
2023-04-15T03:13:14.529Z,234.27
2023-04-15T03:14:14.549Z,235.49
2023-04-15T03:15:14.567Z,231.95
2023-04-15T03:16:14.746Z,230.72
2023-04-15T03:17:14.724Z,229.06
2023-04-15T03:18:14.728Z,232.19
2023-04-15T03:19:14.789Z,237.19
2023-04-15T03:20:14.915Z,234.47
2023-04-15T03:21:14.928Z,227.95
2023-04-15T03:22:14.974Z,225.31
2023-04-15T03:23:15.040Z,223.28
2023-04-15T03:24:15.129Z,220.49
2023-04-15T03:25:15.123Z,217.50
2023-04-15T03:26:15.200Z,219.67
2023-04-15T03:27:15.201Z,222.67
2023-04-15T03:28:15.294Z,227.38
2023-04-15T03:29:15.313Z,231.46
2023-04-15T03:30:15.390Z,239.25
2023-04-15T03:31:15.598Z,242.85
2023-04-15T03:32:15.551Z,245.93
2023-04-15T03:33:15.630Z,249.69
2023-04-15T03:34:15.653Z,251.49
2023-04-15T03:35:15.689Z,251.32
2023-04-15T03:36:15.788Z,249.89
2023-04-15T03:37:15.820Z,247.44
2023-04-15T03:38:15.870Z,248.43
2023-04-15T03:39:15.892Z,243.06
2023-04-15T03:40:15.986Z,236.38
2023-04-15T03:41:16.007Z,233.60
2023-04-15T03:42:16.025Z,232.94
2023-04-15T03:43:16.035Z,232.07
2023-04-15T03:44:16.090Z,232.33
2023-04-15T03:45:16.150Z,233.66
2023-04-15T03:46:16.180Z,235.13
2023-04-15T03:47:16.185Z,236.55
2023-04-15T03:48:18.178Z,241.15
2023-04-15T03:49:16.261Z,242.01
2023-04-15T03:50:16.303Z,238.04
2023-04-15T03:51:16.373Z,235.78
2023-04-15T03:52:16.403Z,236.76
2023-04-15T03:53:16.407Z,234.74
2023-04-15T03:54:16.393Z,237.71
2023-04-15T03:55:16.433Z,238.99
2023-04-15T03:56:16.535Z,238.27
2023-04-15T03:57:16.554Z,240.47
2023-04-15T03:58:16.581Z,241.21
2023-04-15T03:59:16.620Z,240.31
2023-04-15T04:00:16.701Z,239.48
2023-04-15T04:01:16.773Z,240.26
2023-04-15T04:02:16.812Z,239.61
2023-04-15T04:03:16.860Z,239.44
2023-04-15T04:04:16.935Z,239.68
2023-04-15T04:05:16.813Z,237.32
2023-04-15T04:06:16.930Z,236.00
2023-04-15T04:07:16.910Z,236.16
2023-04-15T04:08:16.915Z,234.81
2023-04-15T04:09:16.901Z,238.26
2023-04-15T04:10:16.921Z,241.44
2023-04-15T04:11:16.941Z,240.98
2023-04-15T04:12:17.016Z,241.30
2023-04-15T04:13:16.959Z,237.89
2023-04-15T04:14:16.951Z,235.22
2023-04-15T04:15:16.968Z,236.60
2023-04-15T04:16:17.033Z,236.50
2023-04-15T04:17:17.047Z,237.44
2023-04-15T04:18:17.043Z,237.77
2023-04-15T04:19:17.064Z,239.65
2023-04-15T04:20:17.069Z,237.30
2023-04-15T04:21:17.161Z,236.69
2023-04-15T04:22:17.101Z,231.15
2023-04-15T04:23:17.135Z,223.55
2023-04-15T04:24:17.116Z,221.82
2023-04-15T04:25:17.147Z,221.04
2023-04-15T04:26:17.189Z,219.42
2023-04-15T04:27:17.203Z,217.18
2023-04-15T04:28:17.295Z,207.64
2023-04-15T04:29:17.324Z,201.14
2023-04-15T04:30:17.425Z,189.49
2023-04-15T04:31:17.490Z,178.71
2023-04-15T04:32:17.477Z,179.87
2023-04-15T04:33:17.551Z,180.29
2023-04-15T04:34:17.629Z,178.97
2023-04-15T04:35:17.657Z,173.79
2023-04-15T04:36:17.730Z,164.87
2023-04-15T04:37:17.739Z,153.17
2023-04-15T04:38:17.830Z,139.73
2023-04-15T04:39:17.835Z,126.85
2023-04-15T04:40:17.867Z,126.70
2023-04-15T04:41:17.967Z,128.70
2023-04-15T04:42:17.968Z,129.62
2023-04-15T04:43:18.039Z,150.00
2023-04-15T04:44:18.065Z,193.30
2023-04-15T04:45:18.094Z,206.52
2023-04-15T04:46:18.218Z,203.04
2023-04-15T04:47:18.205Z,200.94
2023-04-15T04:48:18.294Z,204.21
2023-04-15T04:49:18.346Z,201.74
2023-04-15T04:50:18.406Z,202.53
2023-04-15T04:51:18.431Z,202.84
2023-04-15T04:52:18.443Z,211.98
2023-04-15T04:53:18.586Z,212.78
2023-04-15T04:54:18.671Z,213.71
2023-04-15T04:55:18.662Z,216.87
2023-04-15T04:56:18.733Z,218.29
2023-04-15T04:57:18.731Z,221.16
2023-04-15T04:58:18.777Z,223.14
2023-04-15T04:59:19.491Z,225.30
2023-04-15T05:00:18.814Z,224.71
2023-04-15T05:01:18.874Z,221.82
2023-04-15T05:02:18.963Z,217.35
2023-04-15T05:03:19.067Z,218.20
2023-04-15T05:04:19.099Z,219.50
2023-04-15T05:05:18.865Z,218.80
2023-04-15T05:06:18.908Z,217.86
2023-04-15T05:07:18.921Z,215.95
2023-04-15T05:08:18.963Z,220.31
2023-04-15T05:09:19.002Z,226.79
2023-04-15T05:10:18.973Z,227.44
2023-04-15T05:11:18.980Z,227.99
2023-04-15T05:12:18.992Z,228.08
2023-04-15T05:13:18.993Z,225.22
2023-04-15T05:14:19.069Z,214.46
2023-04-15T05:15:19.048Z,213.78
2023-04-15T05:16:19.154Z,213.58
2023-04-15T05:17:19.048Z,218.60
2023-04-15T05:18:19.038Z,218.26
2023-04-15T05:19:19.143Z,222.44
2023-04-15T05:20:19.162Z,222.96
2023-04-15T05:21:19.218Z,217.52
2023-04-15T05:22:19.259Z,218.84
2023-04-15T05:23:19.243Z,217.26
2023-04-15T05:24:19.255Z,219.78
2023-04-15T05:25:19.278Z,231.72
2023-04-15T05:26:19.291Z,232.76
2023-04-15T05:27:19.298Z,230.41
2023-04-15T05:28:19.299Z,220.98
2023-04-15T05:29:19.317Z,217.01
2023-04-15T05:30:19.341Z,219.92
2023-04-15T05:31:19.440Z,216.32
2023-04-15T05:32:19.396Z,224.41
2023-04-15T05:33:19.396Z,229.23
2023-04-15T05:34:19.358Z,230.53
2023-04-15T05:35:19.359Z,229.80
2023-04-15T05:36:19.375Z,227.52
2023-04-15T05:37:19.341Z,222.64
2023-04-15T05:38:19.398Z,220.26
2023-04-15T05:39:19.410Z,222.76
2023-04-15T05:40:19.444Z,226.93
2023-04-15T05:41:19.990Z,229.77
2023-04-15T05:42:19.444Z,229.45
2023-04-15T05:43:19.482Z,242.12
2023-04-15T05:44:19.487Z,241.83
2023-04-15T05:45:19.550Z,255.07
2023-04-15T05:46:19.706Z,255.13
2023-04-15T05:47:19.702Z,236.05
2023-04-15T05:48:19.769Z,229.60
2023-04-15T05:49:19.801Z,225.87
2023-04-15T05:50:19.870Z,220.19
2023-04-15T05:51:19.943Z,212.86
2023-04-15T05:52:19.959Z,200.95
2023-04-15T05:53:20.056Z,195.38
2023-04-15T05:54:20.347Z,182.82
2023-04-15T05:55:20.163Z,151.23
2023-04-15T05:56:20.227Z,133.96
2023-04-15T05:57:20.229Z,119.35
2023-04-15T05:58:20.275Z,122.71
2023-04-15T05:59:20.322Z,109.01
2023-04-15T06:00:20.373Z,103.99
2023-04-15T06:01:20.438Z,104.30
2023-04-15T06:02:20.651Z,105.04
2023-04-15T06:03:20.607Z,105.28
2023-04-15T06:04:20.633Z,111.42
2023-04-15T06:05:20.639Z,97.38
2023-04-15T06:06:20.692Z,81.88
2023-04-15T06:07:20.712Z,79.20
2023-04-15T06:08:20.730Z,79.86
2023-04-15T06:09:20.760Z,74.79
2023-04-15T06:10:20.808Z,69.61
2023-04-15T06:11:20.909Z,83.82
2023-04-15T06:12:20.849Z,90.39
2023-04-15T06:13:20.921Z,100.39
2023-04-15T06:14:20.903Z,102.63
2023-04-15T06:15:20.967Z,90.02
2023-04-15T06:16:21.023Z,75.66
2023-04-15T06:17:21.048Z,78.59
2023-04-15T06:18:21.038Z,68.16
2023-04-15T06:19:21.105Z,49.56
2023-04-15T06:20:21.048Z,48.74
2023-04-15T06:21:21.109Z,50.07
2023-04-15T06:22:21.056Z,36.74
2023-04-15T06:23:21.043Z,22.43
2023-04-15T06:24:21.063Z,17.02
2023-04-15T06:25:21.040Z,28.95
2023-04-15T06:26:21.064Z,16.73
2023-04-15T06:27:21.055Z,6.07
2023-04-15T06:28:21.081Z,21.39
2023-04-15T06:29:21.029Z,27.56
2023-04-15T06:30:22.937Z,28.43
2023-04-15T06:31:21.057Z,23.31
2023-04-15T06:32:21.054Z,27.46
2023-04-15T06:33:21.208Z,18.32
2023-04-15T06:34:20.981Z,6.85
2023-04-15T06:35:20.966Z,4.30
2023-04-15T06:36:21.001Z,8.22
2023-04-15T06:37:20.944Z,17.47
2023-04-15T06:38:20.993Z,21.21
2023-04-15T06:39:20.958Z,21.74
2023-04-15T06:40:20.959Z,24.30
2023-04-15T06:41:20.961Z,23.74
2023-04-15T06:42:20.976Z,24.27
2023-04-15T06:43:20.997Z,37.30
2023-04-15T06:44:20.914Z,61.22
2023-04-15T06:45:20.893Z,34.41
2023-04-15T06:46:21.370Z,7.19
2023-04-15T06:47:20.899Z,5.20
2023-04-15T06:48:20.900Z,2.61
2023-04-15T06:49:20.875Z,0.00
2023-04-15T06:50:20.885Z,1.36
2023-04-15T06:51:20.878Z,1.86
2023-04-15T06:52:20.879Z,2.15
2023-04-15T06:53:20.857Z,10.61
2023-04-15T06:54:20.836Z,26.10
2023-04-15T06:55:20.833Z,51.48
2023-04-15T06:56:20.872Z,50.21
2023-04-15T06:57:20.880Z,56.70
2023-04-15T06:58:20.897Z,63.56
2023-04-15T06:59:20.804Z,51.04
2023-04-15T07:00:20.807Z,38.53
2023-04-15T07:01:21.657Z,29.53
2023-04-15T07:02:20.860Z,22.43
2023-04-15T07:03:20.771Z,22.62
2023-04-15T07:04:20.869Z,28.36
2023-04-15T07:05:20.777Z,31.20
2023-04-15T07:06:20.800Z,38.12
2023-04-15T07:07:20.760Z,44.80
2023-04-15T07:08:20.847Z,46.98
2023-04-15T07:09:20.702Z,41.45
2023-04-15T07:10:20.762Z,42.64
2023-04-15T07:11:20.727Z,44.33
2023-04-15T07:12:20.730Z,43.52
2023-04-15T07:13:20.688Z,37.44
2023-04-15T07:14:20.708Z,33.38
2023-04-15T07:15:20.732Z,32.64
2023-04-15T07:16:20.834Z,33.91
2023-04-15T07:17:20.695Z,29.03
2023-04-15T07:18:20.673Z,33.06
2023-04-15T07:19:20.667Z,36.91
2023-04-15T07:20:20.694Z,30.34
2023-04-15T07:21:20.706Z,27.87
2023-04-15T07:22:20.666Z,27.34
2023-04-15T07:23:20.762Z,26.83
2023-04-15T07:24:20.599Z,22.20
2023-04-15T07:25:20.635Z,23.43
2023-04-15T07:26:20.652Z,22.55
2023-04-15T07:27:20.604Z,24.82
2023-04-15T07:28:20.607Z,25.02
2023-04-15T07:29:20.594Z,29.66
2023-04-15T07:30:20.666Z,38.05
2023-04-15T07:31:20.718Z,47.41
2023-04-15T07:32:20.726Z,35.33
2023-04-15T07:33:20.687Z,28.20
2023-04-15T07:34:20.686Z,24.86
2023-04-15T07:35:20.703Z,25.02
2023-04-15T07:36:20.712Z,25.03
2023-04-15T07:37:20.874Z,29.80
2023-04-15T07:38:20.761Z,20.81
2023-04-15T07:39:20.773Z,22.97
2023-04-15T07:40:20.837Z,20.57
2023-04-15T07:41:20.888Z,17.58
2023-04-15T07:42:21.911Z,21.09
2023-04-15T07:43:21.019Z,27.31
2023-04-15T07:44:21.257Z,41.11
2023-04-15T07:45:21.091Z,35.80
2023-04-15T07:46:21.229Z,36.26
2023-04-15T07:47:21.172Z,34.67
2023-04-15T07:48:21.222Z,32.84
2023-04-15T07:49:21.322Z,27.96
2023-04-15T07:50:21.340Z,27.23
2023-04-15T07:51:21.373Z,28.85
2023-04-15T07:52:21.385Z,28.79
2023-04-15T07:53:21.393Z,29.28
2023-04-15T07:54:21.382Z,34.81
2023-04-15T07:55:21.450Z,51.58
2023-04-15T07:56:21.467Z,48.46
2023-04-15T07:57:21.478Z,47.85
2023-04-15T07:58:21.482Z,52.00
2023-04-15T07:59:21.574Z,102.45
2023-04-15T08:00:21.590Z,107.58
2023-04-15T08:01:21.622Z,112.53
2023-04-15T08:02:21.794Z,120.92
2023-04-15T08:03:21.728Z,108.59
2023-04-15T08:04:21.935Z,91.26
2023-04-15T08:05:21.807Z,76.52
2023-04-15T08:06:21.859Z,68.40
2023-04-15T08:07:21.942Z,50.92
2023-04-15T08:08:21.898Z,39.97
2023-04-15T08:09:21.970Z,37.07
2023-04-15T08:10:22.019Z,33.10
2023-04-15T08:11:22.019Z,35.57
2023-04-15T08:12:22.062Z,45.85
2023-04-15T08:13:22.034Z,48.41
2023-04-15T08:14:22.062Z,45.21
2023-04-15T08:15:22.093Z,42.80
2023-04-15T08:16:22.169Z,45.97
2023-04-15T08:17:22.172Z,48.66
2023-04-15T08:18:22.181Z,52.00
2023-04-15T08:19:22.192Z,58.40
2023-04-15T08:20:22.253Z,63.84
2023-04-15T08:21:22.276Z,66.10
2023-04-15T08:22:22.453Z,67.39
2023-04-15T08:23:22.314Z,73.24
2023-04-15T08:24:22.391Z,58.69
2023-04-15T08:25:22.443Z,48.93
2023-04-15T08:26:22.501Z,53.28
2023-04-15T08:27:22.497Z,61.24
2023-04-15T08:28:22.538Z,73.21
2023-04-15T08:29:22.566Z,80.57
2023-04-15T08:30:22.629Z,79.02
2023-04-15T08:31:22.733Z,78.45
2023-04-15T08:32:22.770Z,81.11
2023-04-15T08:33:22.665Z,86.83
2023-04-15T08:34:22.694Z,84.80
2023-04-15T08:35:22.717Z,82.99
2023-04-15T08:36:22.685Z,75.63
2023-04-15T08:37:22.683Z,71.32
2023-04-15T08:38:22.678Z,65.38
2023-04-15T08:39:22.698Z,64.95
2023-04-15T08:40:22.701Z,73.29
2023-04-15T08:41:22.724Z,77.32
2023-04-15T08:42:22.702Z,87.25
2023-04-15T08:43:22.710Z,91.47
2023-04-15T08:44:22.729Z,89.33
2023-04-15T08:45:22.743Z,88.29
2023-04-15T08:46:22.836Z,84.74
2023-04-15T08:47:22.894Z,77.94
2023-04-15T08:48:22.825Z,71.20
2023-04-15T08:49:22.861Z,52.96
2023-04-15T08:50:22.909Z,40.80
2023-04-15T08:51:24.560Z,52.36
2023-04-15T08:52:23.648Z,68.86
2023-04-15T08:53:23.018Z,79.10
2023-04-15T08:54:22.995Z,71.48
2023-04-15T08:55:22.957Z,66.05
2023-04-15T08:56:22.939Z,62.98
2023-04-15T08:57:22.956Z,67.18
2023-04-15T08:58:22.983Z,73.88
2023-04-15T08:59:23.004Z,76.30
2023-04-15T09:00:23.047Z,82.97
2023-04-15T09:01:23.171Z,79.37
2023-04-15T09:02:23.217Z,70.85
2023-04-15T09:03:23.274Z,82.76
2023-04-15T09:04:23.284Z,81.21
2023-04-15T09:05:24.059Z,64.02
2023-04-15T09:06:23.322Z,51.65
2023-04-15T09:07:23.335Z,52.66
2023-04-15T09:08:23.505Z,52.73
2023-04-15T09:09:23.324Z,53.48
2023-04-15T09:10:23.303Z,57.31
2023-04-15T09:11:23.325Z,65.87
2023-04-15T09:12:23.336Z,73.84
2023-04-15T09:13:23.245Z,73.87
2023-04-15T09:14:23.251Z,77.37
2023-04-15T09:15:23.265Z,86.01
2023-04-15T09:16:23.283Z,90.97
2023-04-15T09:17:23.286Z,93.96
2023-04-15T09:18:23.323Z,87.62
2023-04-15T09:19:23.246Z,81.44
2023-04-15T09:20:23.229Z,81.07
2023-04-15T09:21:23.203Z,69.63
2023-04-15T09:22:23.270Z,66.08
2023-04-15T09:23:23.290Z,48.71
2023-04-15T09:24:23.315Z,35.57
2023-04-15T09:25:23.283Z,28.66
2023-04-15T09:26:23.385Z,34.52
2023-04-15T09:27:23.348Z,33.03
2023-04-15T09:28:23.448Z,36.43
2023-04-15T09:29:23.437Z,42.12
2023-04-15T09:30:23.440Z,47.89
2023-04-15T09:31:23.535Z,29.59
2023-04-15T09:32:23.592Z,23.57
2023-04-15T09:33:23.521Z,29.74
2023-04-15T09:34:23.555Z,36.11
2023-04-15T09:35:23.537Z,42.55
2023-04-15T09:36:23.552Z,38.27
2023-04-15T09:37:32.086Z,23.70
2023-04-15T09:38:24.608Z,23.75
2023-04-15T09:39:23.593Z,24.55
2023-04-15T09:40:23.541Z,27.83
2023-04-15T09:41:23.561Z,38.33
2023-04-15T09:42:23.551Z,53.48
2023-04-15T09:43:23.545Z,55.20
2023-04-15T09:44:23.509Z,52.72
2023-04-15T09:45:24.520Z,44.07
2023-04-15T09:46:23.595Z,28.88
2023-04-15T09:47:23.506Z,53.48
2023-04-15T09:48:23.479Z,94.84
2023-04-15T09:49:23.495Z,90.75
2023-04-15T09:50:23.452Z,82.14
2023-04-15T09:51:23.551Z,78.22
2023-04-15T09:52:23.576Z,72.88
2023-04-15T09:53:23.576Z,53.71
2023-04-15T09:54:23.597Z,53.69
2023-04-15T09:55:23.663Z,65.71
2023-04-15T09:56:23.724Z,73.06
2023-04-15T09:57:23.710Z,75.35
2023-04-15T09:58:23.679Z,74.26
2023-04-15T09:59:23.669Z,63.49
2023-04-15T10:00:23.728Z,70.45
2023-04-15T10:01:23.825Z,66.68
2023-04-15T10:02:23.931Z,55.20
2023-04-15T10:03:24.059Z,50.12
2023-04-15T10:04:23.930Z,55.07
2023-04-15T10:05:23.837Z,58.70
2023-04-15T10:06:23.826Z,67.16
2023-04-15T10:07:23.895Z,77.33
2023-04-15T10:08:23.971Z,86.98
2023-04-15T10:09:23.946Z,91.56
2023-04-15T10:10:23.955Z,95.28
2023-04-15T10:11:24.049Z,96.83
2023-04-15T10:12:24.118Z,98.20
2023-04-15T10:13:24.143Z,95.41
2023-04-15T10:14:24.151Z,96.71
2023-04-15T10:15:24.093Z,90.85
2023-04-15T10:16:24.174Z,87.09
2023-04-15T10:17:24.239Z,86.19
2023-04-15T10:18:24.255Z,74.68
2023-04-15T10:19:24.290Z,72.17
2023-04-15T10:20:24.285Z,71.11
2023-04-15T10:21:24.305Z,75.96
2023-04-15T10:22:24.328Z,59.99
2023-04-15T10:23:24.329Z,48.46
2023-04-15T10:24:24.318Z,41.77
2023-04-15T10:25:24.341Z,39.42
2023-04-15T10:26:24.414Z,34.79
2023-04-15T10:27:24.465Z,34.72
2023-04-15T10:28:24.447Z,31.71
2023-04-15T10:29:24.452Z,26.21
2023-04-15T10:30:24.517Z,29.07
2023-04-15T10:31:24.555Z,33.71
2023-04-15T10:32:24.627Z,42.75
2023-04-15T10:33:24.567Z,32.02
2023-04-15T10:34:24.644Z,24.32
2023-04-15T10:35:24.643Z,19.74
2023-04-15T10:36:24.679Z,19.66
2023-04-15T10:37:24.780Z,28.02
2023-04-15T10:38:24.714Z,52.69
2023-04-15T10:39:24.742Z,54.26
2023-04-15T10:40:24.770Z,42.26
2023-04-15T10:41:24.853Z,41.43
2023-04-15T10:42:24.892Z,45.33
2023-04-15T10:43:24.855Z,43.00
2023-04-15T10:44:24.908Z,49.41
2023-04-15T10:45:24.900Z,50.58
2023-04-15T10:46:25.035Z,44.92
2023-04-15T10:47:25.086Z,42.06
2023-04-15T10:48:25.086Z,41.10
2023-04-15T10:49:25.117Z,31.74
2023-04-15T10:50:25.160Z,29.23
2023-04-15T10:51:25.162Z,40.24
2023-04-15T10:52:25.271Z,39.68
2023-04-15T10:53:25.232Z,55.79
2023-04-15T10:54:25.315Z,51.10
2023-04-15T10:55:25.316Z,42.64
2023-04-15T10:56:25.385Z,38.46
2023-04-15T10:57:25.475Z,40.18
2023-04-15T10:58:25.489Z,81.66
2023-04-15T10:59:25.532Z,98.30
2023-04-15T11:00:25.655Z,54.08
2023-04-15T11:01:25.644Z,35.87
2023-04-15T11:02:26.397Z,33.84
2023-04-15T11:03:25.746Z,30.77
2023-04-15T11:04:27.024Z,30.87
2023-04-15T11:05:25.782Z,31.15
2023-04-15T11:06:25.828Z,45.30
2023-04-15T11:07:25.837Z,56.85
2023-04-15T11:08:25.836Z,54.80
2023-04-15T11:09:25.882Z,45.66
2023-04-15T11:10:26.005Z,54.67
2023-04-15T11:11:25.982Z,60.56
2023-04-15T11:12:25.985Z,50.67
2023-04-15T11:13:25.932Z,32.96
2023-04-15T11:14:26.087Z,17.75
2023-04-15T11:15:26.018Z,12.42
2023-04-15T11:16:26.155Z,13.46
2023-04-15T11:17:26.136Z,15.73
2023-04-15T11:18:26.126Z,14.32
2023-04-15T11:19:26.207Z,25.80
2023-04-15T11:20:26.235Z,28.32
2023-04-15T11:21:26.286Z,24.06
2023-04-15T11:22:26.301Z,26.21
2023-04-15T11:23:26.269Z,23.82
2023-04-15T11:24:26.309Z,21.67
2023-04-15T11:25:26.366Z,21.95
2023-04-15T11:26:26.425Z,32.50
2023-04-15T11:27:26.423Z,44.87
2023-04-15T11:28:26.448Z,43.96
2023-04-15T11:29:26.525Z,42.36
2023-04-15T11:30:26.507Z,40.54
2023-04-15T11:31:26.596Z,43.80
2023-04-15T11:32:26.560Z,43.81
2023-04-15T11:33:26.540Z,44.66
2023-04-15T11:34:26.620Z,52.17
2023-04-15T11:35:26.667Z,52.12
2023-04-15T11:36:27.055Z,51.51
2023-04-15T11:37:26.715Z,57.91
2023-04-15T11:38:26.727Z,63.48
2023-04-15T11:39:26.774Z,62.43
2023-04-15T11:40:26.811Z,64.28
2023-04-15T11:41:26.812Z,67.62
2023-04-15T11:42:31.450Z,66.67
2023-04-15T11:43:27.852Z,66.67
2023-04-15T11:44:26.911Z,67.87
2023-04-15T11:45:26.878Z,70.93
2023-04-15T11:46:26.794Z,75.93
2023-04-15T11:47:26.827Z,83.70
2023-04-15T11:48:26.794Z,83.15
2023-04-15T11:49:26.802Z,71.66
2023-04-15T11:50:26.773Z,68.94
2023-04-15T11:51:26.864Z,66.89
2023-04-15T11:52:26.786Z,66.74
2023-04-15T11:53:26.760Z,71.51
2023-04-15T11:54:26.779Z,71.53
2023-04-15T11:55:26.768Z,76.04
2023-04-15T11:56:26.799Z,68.17
2023-04-15T11:57:26.726Z,68.52
2023-04-15T11:58:26.769Z,67.80
2023-04-15T11:59:38.999Z,57.89
2023-04-15T12:00:27.818Z,51.11
2023-04-15T12:01:26.799Z,54.74
2023-04-15T12:02:26.890Z,58.23
2023-04-15T12:03:26.875Z,50.33
2023-04-15T12:04:26.955Z,47.05
2023-04-15T12:05:26.803Z,43.63
2023-04-15T12:06:26.793Z,45.15
2023-04-15T12:07:26.759Z,44.31
2023-04-15T12:08:26.798Z,54.92
2023-04-15T12:09:26.731Z,46.60
2023-04-15T12:10:26.745Z,38.25
2023-04-15T12:11:26.724Z,34.11
2023-04-15T12:12:26.790Z,26.55
2023-04-15T12:13:26.753Z,25.00
2023-04-15T12:14:26.882Z,24.00
2023-04-15T12:15:26.900Z,26.28
2023-04-15T12:16:26.910Z,22.37
2023-04-15T12:17:27.085Z,24.15
2023-04-15T12:18:26.996Z,23.38
2023-04-15T12:19:27.081Z,25.26
2023-04-15T12:20:27.082Z,27.00
2023-04-15T12:21:27.157Z,28.31
2023-04-15T12:22:27.134Z,32.53
2023-04-15T12:23:27.182Z,36.32
2023-04-15T12:24:27.223Z,34.23
2023-04-15T12:25:27.237Z,33.51
2023-04-15T12:26:27.275Z,36.14
2023-04-15T12:27:29.632Z,33.93
2023-04-15T12:28:27.509Z,44.60
2023-04-15T12:29:27.425Z,77.83
2023-04-15T12:30:27.511Z,57.25
2023-04-15T12:31:27.585Z,36.40
2023-04-15T12:32:27.576Z,32.58
2023-04-15T12:33:27.607Z,35.70
2023-04-15T12:34:27.625Z,45.88
2023-04-15T12:35:27.581Z,37.50
2023-04-15T12:36:27.600Z,53.79
2023-04-15T12:37:28.064Z,50.77
2023-04-15T12:38:27.665Z,56.35
2023-04-15T12:39:29.261Z,52.65
2023-04-15T12:40:27.697Z,48.08
2023-04-15T12:41:27.705Z,50.36